sensor_id;sensor_type;location;lat;lon;timestamp;pressure;altitude;pressure_sealevel;temperature;humidity
69058;BME280;56128;37.534;-122.308;2023-04-27T00:01:44;101102.84;;;26.61;35.13
69058;BME280;56128;37.534;-122.308;2023-04-27T00:04:11;101098.66;;;26.58;35.81
69058;BME280;56128;37.534;-122.308;2023-04-27T00:06:39;101098.84;;;26.64;36.48
69058;BME280;56128;37.534;-122.308;2023-04-27T00:09:05;101096.13;;;26.57;34.90
69058;BME280;56128;37.534;-122.308;2023-04-27T00:11:31;101095.28;;;26.50;34.10
69058;BME280;56128;37.534;-122.308;2023-04-27T00:13:57;101100.97;;;26.55;35.55
69058;BME280;56128;37.534;-122.308;2023-04-27T00:16:24;101098.66;;;26.58;35.80
69058;BME280;56128;37.534;-122.308;2023-04-27T00:18:50;101104.78;;;26.54;35.04
69058;BME280;56128;37.534;-122.308;2023-04-27T00:21:18;101092.78;;;26.48;37.92
69058;BME280;56128;37.534;-122.308;2023-04-27T00:23:45;101089.84;;;26.43;37.48
69058;BME280;56128;37.534;-122.308;2023-04-27T00:26:11;101086.88;;;26.45;35.52
69058;BME280;56128;37.534;-122.308;2023-04-27T00:28:37;101094.88;;;26.46;36.65
69058;BME280;56128;37.534;-122.308;2023-04-27T00:31:04;101096.38;;;26.42;35.67
69058;BME280;56128;37.534;-122.308;2023-04-27T00:33:30;101086.91;;;26.38;36.69
69058;BME280;56128;37.534;-122.308;2023-04-27T00:36:00;101087.31;;;26.35;37.49
69058;BME280;56128;37.534;-122.308;2023-04-27T00:38:27;101086.22;;;26.42;36.52
69058;BME280;56128;37.534;-122.308;2023-04-27T00:41:03;101087.31;;;26.41;34.45
69058;BME280;56128;37.534;-122.308;2023-04-27T00:43:30;101094.25;;;26.37;34.11
69058;BME280;56128;37.534;-122.308;2023-04-27T00:45:57;101093.66;;;26.35;33.76
69058;BME280;56128;37.534;-122.308;2023-04-27T00:48:25;101082.69;;;26.22;35.78
69058;BME280;56128;37.534;-122.308;2023-04-27T00:50:51;101086.06;;;26.24;38.35
69058;BME280;56128;37.534;-122.308;2023-04-27T00:53:18;101085.84;;;26.25;39.02
69058;BME280;56128;37.534;-122.308;2023-04-27T00:55:44;101089.88;;;26.23;39.94
69058;BME280;56128;37.534;-122.308;2023-04-27T00:58:11;101089.88;;;26.09;40.37
69058;BME280;56128;37.534;-122.308;2023-04-27T01:00:38;101085.66;;;26.00;41.19
69058;BME280;56128;37.534;-122.308;2023-04-27T01:03:06;101086.91;;;25.91;42.10
69058;BME280;56128;37.534;-122.308;2023-04-27T01:05:33;101078.47;;;25.79;42.52
69058;BME280;56128;37.534;-122.308;2023-04-27T01:07:59;101084.81;;;25.73;42.63
69058;BME280;56128;37.534;-122.308;2023-04-27T01:10:26;101075.94;;;25.64;44.14
69058;BME280;56128;37.534;-122.308;2023-04-27T01:12:53;101072.56;;;25.62;43.08
69058;BME280;56128;37.534;-122.308;2023-04-27T01:15:19;101081.41;;;25.57;42.83
69058;BME280;56128;37.534;-122.308;2023-04-27T01:17:46;101079.72;;;25.43;44.80
69058;BME280;56128;37.534;-122.308;2023-04-27T01:20:13;101072.47;;;25.22;45.86
69058;BME280;56128;37.534;-122.308;2023-04-27T01:22:39;101076.22;;;25.07;47.10
69058;BME280;56128;37.534;-122.308;2023-04-27T01:25:06;101082.91;;;24.98;50.00
69058;BME280;56128;37.534;-122.308;2023-04-27T01:27:33;101088.31;;;24.78;52.35
69058;BME280;56128;37.534;-122.308;2023-04-27T01:29:59;101084.06;;;24.69;53.28
69058;BME280;56128;37.534;-122.308;2023-04-27T01:32:25;101089.41;;;24.48;53.18
69058;BME280;56128;37.534;-122.308;2023-04-27T01:34:51;101091.00;;;24.36;54.14
69058;BME280;56128;37.534;-122.308;2023-04-27T01:37:18;101083.31;;;24.18;55.00
69058;BME280;56128;37.534;-122.308;2023-04-27T01:39:44;101086.78;;;24.05;56.02
69058;BME280;56128;37.534;-122.308;2023-04-27T01:42:10;101086.03;;;23.90;56.62
69058;BME280;56128;37.534;-122.308;2023-04-27T01:44:36;101089.50;;;23.77;56.40
69058;BME280;56128;37.534;-122.308;2023-04-27T01:47:03;101085.59;;;23.64;57.19
69058;BME280;56128;37.534;-122.308;2023-04-27T01:49:29;101087.72;;;23.47;57.49
69058;BME280;56128;37.534;-122.308;2023-04-27T01:51:55;101087.31;;;23.29;56.87
69058;BME280;56128;37.534;-122.308;2023-04-27T01:54:21;101088.28;;;23.21;57.74
69058;BME280;56128;37.534;-122.308;2023-04-27T01:56:48;101091.50;;;23.10;57.82
69058;BME280;56128;37.534;-122.308;2023-04-27T01:59:14;101089.56;;;22.89;57.78
69058;BME280;56128;37.534;-122.308;2023-04-27T02:01:40;101091.47;;;22.73;57.32
69058;BME280;56128;37.534;-122.308;2023-04-27T02:04:06;101088.34;;;22.61;57.78
69058;BME280;56128;37.534;-122.308;2023-04-27T02:06:33;101084.31;;;22.42;58.51
69058;BME280;56128;37.534;-122.308;2023-04-27T02:08:59;101088.34;;;22.31;57.81
69058;BME280;56128;37.534;-122.308;2023-04-27T02:11:25;101085.13;;;22.13;58.07
69058;BME280;56128;37.534;-122.308;2023-04-27T02:13:52;101082.66;;;22.03;58.20
69058;BME280;56128;37.534;-122.308;2023-04-27T02:16:18;101078.88;;;21.89;59.47
69058;BME280;56128;37.534;-122.308;2023-04-27T02:18:44;101092.06;;;21.77;59.04
69058;BME280;56128;37.534;-122.308;2023-04-27T02:21:10;101088.28;;;21.63;58.64
69058;BME280;56128;37.534;-122.308;2023-04-27T02:23:37;101089.78;;;21.43;58.05
69058;BME280;56128;37.534;-122.308;2023-04-27T02:26:03;101091.16;;;21.38;58.16
69058;BME280;56128;37.534;-122.308;2023-04-27T02:28:29;101090.91;;;21.25;58.44
69058;BME280;56128;37.534;-122.308;2023-04-27T02:30:56;101097.28;;;21.09;58.40
69058;BME280;56128;37.534;-122.308;2023-04-27T02:33:22;101095.47;;;21.01;58.83
69058;BME280;56128;37.534;-122.308;2023-04-27T02:35:48;101100.13;;;20.84;59.20
69058;BME280;56128;37.534;-122.308;2023-04-27T02:38:14;101099.66;;;20.72;59.70
69058;BME280;56128;37.534;-122.308;2023-04-27T02:40:41;101093.56;;;20.62;59.71
69058;BME280;56128;37.534;-122.308;2023-04-27T02:43:07;101100.91;;;20.53;60.91
69058;BME280;56128;37.534;-122.308;2023-04-27T02:45:36;101102.16;;;20.34;61.13
69058;BME280;56128;37.534;-122.308;2023-04-27T02:48:03;101096.06;;;20.16;61.48
69058;BME280;56128;37.534;-122.308;2023-04-27T02:50:29;101100.28;;;20.10;61.96
69058;BME280;56128;37.534;-122.308;2023-04-27T02:52:55;101107.44;;;19.94;62.93
69058;BME280;56128;37.534;-122.308;2023-04-27T02:55:22;101108.94;;;19.81;61.86
69058;BME280;56128;37.534;-122.308;2023-04-27T02:57:48;101114.53;;;19.71;62.59
69058;BME280;56128;37.534;-122.308;2023-04-27T03:00:14;101116.91;;;19.57;63.03
69058;BME280;56128;37.534;-122.308;2023-04-27T03:02:41;101108.72;;;19.41;63.64
69058;BME280;56128;37.534;-122.308;2023-04-27T03:05:08;101123.31;;;19.32;64.02
69058;BME280;56128;37.534;-122.308;2023-04-27T03:07:34;101123.94;;;19.17;64.26
69058;BME280;56128;37.534;-122.308;2023-04-27T03:10:00;101122.88;;;19.02;63.60
69058;BME280;56128;37.534;-122.308;2023-04-27T03:12:26;101127.25;;;18.94;63.76
69058;BME280;56128;37.534;-122.308;2023-04-27T03:14:53;101130.22;;;18.83;63.79
69058;BME280;56128;37.534;-122.308;2023-04-27T03:17:19;101124.09;;;18.73;63.46
69058;BME280;56128;37.534;-122.308;2023-04-27T03:19:46;101128.78;;;18.62;63.76
69058;BME280;56128;37.534;-122.308;2023-04-27T03:22:14;101132.94;;;18.48;65.45
69058;BME280;56128;37.534;-122.308;2023-04-27T03:24:40;101131.00;;;18.41;66.27
69058;BME280;56128;37.534;-122.308;2023-04-27T03:27:07;101139.09;;;18.32;66.20
69058;BME280;56128;37.534;-122.308;2023-04-27T03:29:33;101136.66;;;18.21;66.26
69058;BME280;56128;37.534;-122.308;2023-04-27T03:32:00;101133.88;;;18.13;70.50
69058;BME280;56128;37.534;-122.308;2023-04-27T03:34:26;101135.66;;;18.04;69.46
69058;BME280;56128;37.534;-122.308;2023-04-27T03:36:52;101145.72;;;17.94;70.84
69058;BME280;56128;37.534;-122.308;2023-04-27T03:39:19;101139.03;;;17.88;70.86
69058;BME280;56128;37.534;-122.308;2023-04-27T03:41:45;101150.44;;;17.74;72.61
69058;BME280;56128;37.534;-122.308;2023-04-27T03:44:11;101163.97;;;17.74;71.04
69058;BME280;56128;37.534;-122.308;2023-04-27T03:46:37;101161.03;;;17.67;70.09
69058;BME280;56128;37.534;-122.308;2023-04-27T03:49:04;101160.50;;;17.63;68.54
69058;BME280;56128;37.534;-122.308;2023-04-27T03:51:30;101157.69;;;17.55;69.58
69058;BME280;56128;37.534;-122.308;2023-04-27T03:53:58;101168.88;;;17.42;71.12
69058;BME280;56128;37.534;-122.308;2023-04-27T03:56:25;101167.94;;;17.33;71.57
69058;BME280;56128;37.534;-122.308;2023-04-27T03:58:51;101169.53;;;17.26;69.93
69058;BME280;56128;37.534;-122.308;2023-04-27T04:01:17;101167.19;;;17.13;70.48
69058;BME280;56128;37.534;-122.308;2023-04-27T04:03:44;101178.72;;;17.15;68.69
69058;BME280;56128;37.534;-122.308;2023-04-27T04:06:12;101175.06;;;17.07;71.40
69058;BME280;56128;37.534;-122.308;2023-04-27T04:08:38;101192.41;;;17.04;71.86
69058;BME280;56128;37.534;-122.308;2023-04-27T04:11:04;101189.78;;;16.94;71.57
69058;BME280;56128;37.534;-122.308;2023-04-27T04:13:30;101189.06;;;16.82;70.19
69058;BME280;56128;37.534;-122.308;2023-04-27T04:16:04;101188.09;;;16.74;72.12
69058;BME280;56128;37.534;-122.308;2023-04-27T04:18:31;101212.44;;;16.64;72.62
69058;BME280;56128;37.534;-122.308;2023-04-27T04:20:58;101205.66;;;16.50;73.43
69058;BME280;56128;37.534;-122.308;2023-04-27T04:23:24;101203.81;;;16.41;73.93
69058;BME280;56128;37.534;-122.308;2023-04-27T04:25:50;101206.53;;;16.31;75.99
69058;BME280;56128;37.534;-122.308;2023-04-27T04:28:16;101200.56;;;16.17;76.84
69058;BME280;56128;37.534;-122.308;2023-04-27T04:30:43;101191.47;;;16.09;78.28
69058;BME280;56128;37.534;-122.308;2023-04-27T04:33:09;101190.78;;;15.97;80.03
69058;BME280;56128;37.534;-122.308;2023-04-27T04:35:39;101194.47;;;15.86;80.73
69058;BME280;56128;37.534;-122.308;2023-04-27T04:38:06;101193.88;;;15.72;84.37
69058;BME280;56128;37.534;-122.308;2023-04-27T04:40:33;101191.16;;;15.63;87.24
69058;BME280;56128;37.534;-122.308;2023-04-27T04:42:59;101202.91;;;15.52;89.11
69058;BME280;56128;37.534;-122.308;2023-04-27T04:45:25;101199.34;;;15.41;89.78
69058;BME280;56128;37.534;-122.308;2023-04-27T04:47:52;101200.88;;;15.34;91.70
69058;BME280;56128;37.534;-122.308;2023-04-27T04:50:19;101198.28;;;15.23;92.83
69058;BME280;56128;37.534;-122.308;2023-04-27T04:52:45;101204.50;;;15.14;96.13
69058;BME280;56128;37.534;-122.308;2023-04-27T04:55:11;101206.31;;;15.03;96.96
69058;BME280;56128;37.534;-122.308;2023-04-27T04:57:37;101201.13;;;14.90;97.77
69058;BME280;56128;37.534;-122.308;2023-04-27T05:00:04;101202.56;;;14.85;99.90
69058;BME280;56128;37.534;-122.308;2023-04-27T05:02:38;101211.41;;;14.75;100.00
69058;BME280;56128;37.534;-122.308;2023-04-27T05:05:05;101212.44;;;14.63;100.00
69058;BME280;56128;37.534;-122.308;2023-04-27T05:07:32;101213.97;;;14.56;100.00
69058;BME280;56128;37.534;-122.308;2023-04-27T05:09:59;101218.84;;;14.41;100.00
69058;BME280;56128;37.534;-122.308;2023-04-27T05:12:25;101224.38;;;14.39;100.00
69058;BME280;56128;37.534;-122.308;2023-04-27T05:14:52;101227.16;;;14.38;100.00
69058;BME280;56128;37.534;-122.308;2023-04-27T05:17:18;101222.56;;;14.28;100.00
69058;BME280;56128;37.534;-122.308;2023-04-27T05:19:44;101229.31;;;14.23;100.00
69058;BME280;56128;37.534;-122.308;2023-04-27T05:22:10;101227.56;;;14.12;100.00
69058;BME280;56128;37.534;-122.308;2023-04-27T05:24:37;101236.84;;;14.08;100.00
69058;BME280;56128;37.534;-122.308;2023-04-27T05:27:03;101238.22;;;14.02;100.00
69058;BME280;56128;37.534;-122.308;2023-04-27T05:29:30;101228.47;;;13.90;100.00
69058;BME280;56128;37.534;-122.308;2023-04-27T05:31:56;101230.97;;;13.82;100.00
69058;BME280;56128;37.534;-122.308;2023-04-27T05:34:22;101231.72;;;13.72;100.00
69058;BME280;56128;37.534;-122.308;2023-04-27T05:36:48;101239.03;;;13.70;100.00
69058;BME280;56128;37.534;-122.308;2023-04-27T05:39:15;101238.97;;;13.60;100.00
69058;BME280;56128;37.534;-122.308;2023-04-27T05:41:41;101238.59;;;13.54;100.00
69058;BME280;56128;37.534;-122.308;2023-04-27T05:44:07;101241.06;;;13.45;100.00
69058;BME280;56128;37.534;-122.308;2023-04-27T05:46:34;101242.75;;;13.35;100.00
69058;BME280;56128;37.534;-122.308;2023-04-27T05:49:00;101240.78;;;13.26;100.00
69058;BME280;56128;37.534;-122.308;2023-04-27T05:51:26;101243.00;;;13.21;100.00
69058;BME280;56128;37.534;-122.308;2023-04-27T05:53:53;101240.03;;;13.12;100.00
69058;BME280;56128;37.534;-122.308;2023-04-27T05:56:21;101237.25;;;13.03;100.00
69058;BME280;56128;37.534;-122.308;2023-04-27T05:58:47;101240.31;;;12.98;100.00
69058;BME280;56128;37.534;-122.308;2023-04-27T06:01:13;101243.72;;;12.89;100.00
69058;BME280;56128;37.534;-122.308;2023-04-27T06:03:40;101243.47;;;12.80;100.00
69058;BME280;56128;37.534;-122.308;2023-04-27T06:06:06;101245.41;;;12.78;100.00
69058;BME280;56128;37.534;-122.308;2023-04-27T06:08:32;101241.09;;;12.64;100.00
69058;BME280;56128;37.534;-122.308;2023-04-27T06:11:02;101248.31;;;12.64;100.00
69058;BME280;56128;37.534;-122.308;2023-04-27T06:13:29;101242.66;;;12.56;100.00
69058;BME280;56128;37.534;-122.308;2023-04-27T06:15:56;101242.28;;;12.49;100.00
69058;BME280;56128;37.534;-122.308;2023-04-27T06:18:22;101240.94;;;12.43;100.00
69058;BME280;56128;37.534;-122.308;2023-04-27T06:20:48;101243.22;;;12.37;100.00
69058;BME280;56128;37.534;-122.308;2023-04-27T06:23:15;101250.53;;;12.34;100.00
69058;BME280;56128;37.534;-122.308;2023-04-27T06:25:41;101249.66;;;12.23;100.00
69058;BME280;56128;37.534;-122.308;2023-04-27T06:28:07;101243.66;;;12.19;100.00
69058;BME280;56128;37.534;-122.308;2023-04-27T06:30:33;101251.41;;;12.11;100.00
69058;BME280;56128;37.534;-122.308;2023-04-27T06:33:00;101242.97;;;12.04;100.00
69058;BME280;56128;37.534;-122.308;2023-04-27T06:35:26;101244.41;;;11.97;100.00
69058;BME280;56128;37.534;-122.308;2023-04-27T06:37:52;101247.41;;;11.92;100.00
69058;BME280;56128;37.534;-122.308;2023-04-27T06:40:24;101242.50;;;11.86;100.00
69058;BME280;56128;37.534;-122.308;2023-04-27T06:42:51;101246.34;;;11.82;100.00
69058;BME280;56128;37.534;-122.308;2023-04-27T06:45:17;101249.50;;;11.76;100.00
69058;BME280;56128;37.534;-122.308;2023-04-27T06:47:44;101246.53;;;11.67;100.00
69058;BME280;56128;37.534;-122.308;2023-04-27T06:50:10;101246.66;;;11.66;100.00
69058;BME280;56128;37.534;-122.308;2023-04-27T06:52:36;101246.13;;;11.61;100.00
69058;BME280;56128;37.534;-122.308;2023-04-27T06:55:03;101243.78;;;11.56;100.00
69058;BME280;56128;37.534;-122.308;2023-04-27T06:57:29;101239.72;;;11.50;100.00
69058;BME280;56128;37.534;-122.308;2023-04-27T06:59:55;101248.09;;;11.46;100.00
69058;BME280;56128;37.534;-122.308;2023-04-27T07:02:22;101244.03;;;11.40;100.00
69058;BME280;56128;37.534;-122.308;2023-04-27T07:04:48;101243.41;;;11.36;100.00
69058;BME280;56128;37.534;-122.308;2023-04-27T07:07:14;101234.84;;;11.31;100.00
69058;BME280;56128;37.534;-122.308;2023-04-27T07:09:41;101238.81;;;11.26;100.00
69058;BME280;56128;37.534;-122.308;2023-04-27T07:12:07;101234.53;;;11.23;100.00
69058;BME280;56128;37.534;-122.308;2023-04-27T07:14:33;101233.16;;;11.17;100.00
69058;BME280;56128;37.534;-122.308;2023-04-27T07:16:59;101230.72;;;11.14;100.00
69058;BME280;56128;37.534;-122.308;2023-04-27T07:19:26;101237.44;;;11.07;100.00
69058;BME280;56128;37.534;-122.308;2023-04-27T07:21:52;101241.31;;;11.03;100.00
69058;BME280;56128;37.534;-122.308;2023-04-27T07:24:18;101229.09;;;10.99;100.00
69058;BME280;56128;37.534;-122.308;2023-04-27T07:26:45;101238.31;;;10.95;100.00
69058;BME280;56128;37.534;-122.308;2023-04-27T07:29:11;101239.38;;;10.92;100.00
69058;BME280;56128;37.534;-122.308;2023-04-27T07:31:38;101235.41;;;10.85;100.00
69058;BME280;56128;37.534;-122.308;2023-04-27T07:34:04;101229.53;;;10.80;100.00
69058;BME280;56128;37.534;-122.308;2023-04-27T07:36:30;101234.25;;;10.76;100.00
69058;BME280;56128;37.534;-122.308;2023-04-27T07:38:57;101244.31;;;10.72;100.00
69058;BME280;56128;37.534;-122.308;2023-04-27T07:41:23;101243.66;;;10.69;100.00
69058;BME280;56128;37.534;-122.308;2023-04-27T07:43:49;101242.28;;;10.63;100.00
69058;BME280;56128;37.534;-122.308;2023-04-27T07:46:17;101242.81;;;10.55;100.00
69058;BME280;56128;37.534;-122.308;2023-04-27T07:48:43;101243.13;;;10.51;100.00
69058;BME280;56128;37.534;-122.308;2023-04-27T07:51:09;101244.84;;;10.52;100.00
69058;BME280;56128;37.534;-122.308;2023-04-27T07:53:36;101242.34;;;10.49;100.00
69058;BME280;56128;37.534;-122.308;2023-04-27T07:56:04;101244.59;;;10.42;100.00
69058;BME280;56128;37.534;-122.308;2023-04-27T07:58:31;101248.53;;;10.36;100.00
69058;BME280;56128;37.534;-122.308;2023-04-27T08:00:57;101238.97;;;10.32;100.00
69058;BME280;56128;37.534;-122.308;2023-04-27T08:03:23;101236.94;;;10.23;100.00
69058;BME280;56128;37.534;-122.308;2023-04-27T08:05:50;101242.16;;;10.24;100.00
69058;BME280;56128;37.534;-122.308;2023-04-27T08:08:16;101246.75;;;10.22;100.00
69058;BME280;56128;37.534;-122.308;2023-04-27T08:10:42;101244.19;;;10.21;100.00
69058;BME280;56128;37.534;-122.308;2023-04-27T08:13:08;101248.03;;;10.17;100.00
69058;BME280;56128;37.534;-122.308;2023-04-27T08:15:35;101243.09;;;10.11;100.00
69058;BME280;56128;37.534;-122.308;2023-04-27T08:18:02;101252.06;;;10.10;100.00
69058;BME280;56128;37.534;-122.308;2023-04-27T08:20:28;101244.16;;;10.08;100.00
69058;BME280;56128;37.534;-122.308;2023-04-27T08:22:54;101246.28;;;10.03;100.00
69058;BME280;56128;37.534;-122.308;2023-04-27T08:25:21;101242.97;;;9.99;100.00
69058;BME280;56128;37.534;-122.308;2023-04-27T08:27:47;101241.53;;;9.94;100.00
69058;BME280;56128;37.534;-122.308;2023-04-27T08:30:13;101239.63;;;9.96;100.00
69058;BME280;56128;37.534;-122.308;2023-04-27T08:32:40;101233.06;;;9.87;100.00
69058;BME280;56128;37.534;-122.308;2023-04-27T08:35:07;101240.25;;;9.86;100.00
69058;BME280;56128;37.534;-122.308;2023-04-27T08:37:33;101231.66;;;9.81;100.00
69058;BME280;56128;37.534;-122.308;2023-04-27T08:39:59;101244.28;;;9.79;100.00
69058;BME280;56128;37.534;-122.308;2023-04-27T08:42:25;101238.44;;;9.72;100.00
69058;BME280;56128;37.534;-122.308;2023-04-27T08:44:52;101242.19;;;9.70;100.00
69058;BME280;56128;37.534;-122.308;2023-04-27T08:47:18;101254.97;;;9.65;100.00
69058;BME280;56128;37.534;-122.308;2023-04-27T08:49:44;101251.66;;;9.61;100.00
69058;BME280;56128;37.534;-122.308;2023-04-27T08:52:14;101249.28;;;9.56;100.00
69058;BME280;56128;37.534;-122.308;2023-04-27T08:54:41;101242.34;;;9.54;100.00
69058;BME280;56128;37.534;-122.308;2023-04-27T08:57:14;101242.41;;;9.52;100.00
69058;BME280;56128;37.534;-122.308;2023-04-27T08:59:41;101246.81;;;9.53;100.00
69058;BME280;56128;37.534;-122.308;2023-04-27T09:02:20;101239.84;;;9.51;100.00
69058;BME280;56128;37.534;-122.308;2023-04-27T09:04:47;101236.50;;;9.47;100.00
69058;BME280;56128;37.534;-122.308;2023-04-27T09:07:14;101234.16;;;9.42;100.00
69058;BME280;56128;37.534;-122.308;2023-04-27T09:09:41;101234.44;;;9.38;100.00
69058;BME280;56128;37.534;-122.308;2023-04-27T09:12:19;101234.81;;;9.32;100.00
69058;BME280;56128;37.534;-122.308;2023-04-27T09:14:59;101235.66;;;9.32;100.00
69058;BME280;56128;37.534;-122.308;2023-04-27T09:17:28;101238.09;;;9.22;100.00
69058;BME280;56128;37.534;-122.308;2023-04-27T09:20:05;101229.31;;;9.20;100.00
69058;BME280;56128;37.534;-122.308;2023-04-27T09:22:45;101229.31;;;9.20;100.00
69058;BME280;56128;37.534;-122.308;2023-04-27T09:25:29;101217.13;;;9.16;100.00
69058;BME280;56128;37.534;-122.308;2023-04-27T09:27:56;101218.91;;;9.16;100.00
69058;BME280;56128;37.534;-122.308;2023-04-27T09:30:23;101219.97;;;9.13;100.00
69058;BME280;56128;37.534;-122.308;2023-04-27T09:32:58;101217.69;;;9.07;100.00
69058;BME280;56128;37.534;-122.308;2023-04-27T09:35:31;101212.66;;;9.02;100.00
69058;BME280;56128;37.534;-122.308;2023-04-27T09:37:59;101210.03;;;9.01;100.00
69058;BME280;56128;37.534;-122.308;2023-04-27T09:40:27;101203.41;;;8.93;100.00
69058;BME280;56128;37.534;-122.308;2023-04-27T09:42:58;101208.75;;;8.93;100.00
69058;BME280;56128;37.534;-122.308;2023-04-27T09:45:28;101202.63;;;8.91;100.00
69058;BME280;56128;37.534;-122.308;2023-04-27T09:47:54;101203.78;;;8.87;100.00
69058;BME280;56128;37.534;-122.308;2023-04-27T09:50:21;101196.81;;;8.85;100.00
69058;BME280;56128;37.534;-122.308;2023-04-27T09:52:47;101202.22;;;8.83;100.00
69058;BME280;56128;37.534;-122.308;2023-04-27T09:55:20;101198.81;;;8.81;100.00
69058;BME280;56128;37.534;-122.308;2023-04-27T09:58:23;101192.81;;;8.77;100.00
69058;BME280;56128;37.534;-122.308;2023-04-27T10:00:47;101197.38;;;8.75;100.00
69058;BME280;56128;37.534;-122.308;2023-04-27T10:03:40;101194.97;;;8.71;100.00
69058;BME280;56128;37.534;-122.308;2023-04-27T10:06:40;101182.06;;;8.65;100.00
69058;BME280;56128;37.534;-122.308;2023-04-27T10:09:11;101177.94;;;8.59;100.00
69058;BME280;56128;37.534;-122.308;2023-04-27T10:11:39;101177.16;;;8.57;100.00
69058;BME280;56128;37.534;-122.308;2023-04-27T10:14:07;101172.88;;;8.54;100.00
69058;BME280;56128;37.534;-122.308;2023-04-27T10:19:13;101176.53;;;8.53;100.00
69058;BME280;56128;37.534;-122.308;2023-04-27T10:21:57;101175.91;;;8.48;100.00
69058;BME280;56128;37.534;-122.308;2023-04-27T10:24:35;101172.63;;;8.43;100.00
69058;BME280;56128;37.534;-122.308;2023-04-27T10:27:03;101173.59;;;8.42;100.00
69058;BME280;56128;37.534;-122.308;2023-04-27T10:29:36;101175.50;;;8.40;100.00
69058;BME280;56128;37.534;-122.308;2023-04-27T10:32:12;101171.13;;;8.39;100.00
69058;BME280;56128;37.534;-122.308;2023-04-27T10:34:39;101168.72;;;8.34;100.00
69058;BME280;56128;37.534;-122.308;2023-04-27T10:37:36;101171.50;;;8.33;100.00
69058;BME280;56128;37.534;-122.308;2023-04-27T10:40:06;101168.03;;;8.31;100.00
69058;BME280;56128;37.534;-122.308;2023-04-27T10:42:32;101168.25;;;8.27;100.00
69058;BME280;56128;37.534;-122.308;2023-04-27T10:44:58;101161.38;;;8.23;100.00
69058;BME280;56128;37.534;-122.308;2023-04-27T10:47:35;101164.78;;;8.25;100.00
69058;BME280;56128;37.534;-122.308;2023-04-27T10:50:04;101155.38;;;8.20;100.00
69058;BME280;56128;37.534;-122.308;2023-04-27T10:52:30;101158.50;;;8.12;100.00
69058;BME280;56128;37.534;-122.308;2023-04-27T10:54:57;101162.03;;;8.12;100.00
69058;BME280;56128;37.534;-122.308;2023-04-27T10:57:23;101162.13;;;8.11;100.00
69058;BME280;56128;37.534;-122.308;2023-04-27T10:59:51;101160.59;;;8.07;100.00
69058;BME280;56128;37.534;-122.308;2023-04-27T11:02:25;101165.16;;;8.05;100.00
69058;BME280;56128;37.534;-122.308;2023-04-27T11:04:52;101163.69;;;7.99;100.00
69058;BME280;56128;37.534;-122.308;2023-04-27T11:07:26;101167.31;;;7.98;100.00
69058;BME280;56128;37.534;-122.308;2023-04-27T11:09:53;101167.50;;;7.95;100.00
69058;BME280;56128;37.534;-122.308;2023-04-27T11:12:20;101163.41;;;7.89;100.00
69058;BME280;56128;37.534;-122.308;2023-04-27T11:14:47;101175.75;;;7.90;100.00
69058;BME280;56128;37.534;-122.308;2023-04-27T11:17:13;101167.94;;;7.87;100.00
69058;BME280;56128;37.534;-122.308;2023-04-27T11:19:46;101172.50;;;7.85;100.00
69058;BME280;56128;37.534;-122.308;2023-04-27T11:22:13;101171.75;;;7.83;100.00
69058;BME280;56128;37.534;-122.308;2023-04-27T11:24:49;101179.91;;;7.80;100.00
69058;BME280;56128;37.534;-122.308;2023-04-27T11:27:17;101182.81;;;7.75;100.00
69058;BME280;56128;37.534;-122.308;2023-04-27T11:29:43;101171.50;;;7.72;100.00
69058;BME280;56128;37.534;-122.308;2023-04-27T11:32:20;101179.41;;;7.73;100.00
69058;BME280;56128;37.534;-122.308;2023-04-27T11:34:51;101184.84;;;7.72;100.00
69058;BME280;56128;37.534;-122.308;2023-04-27T11:37:25;101184.22;;;7.67;100.00
69058;BME280;56128;37.534;-122.308;2023-04-27T11:39:53;101185.19;;;7.66;100.00
69058;BME280;56128;37.534;-122.308;2023-04-27T11:42:25;101186.13;;;7.64;100.00
69058;BME280;56128;37.534;-122.308;2023-04-27T11:44:54;101179.16;;;7.62;100.00
69058;BME280;56128;37.534;-122.308;2023-04-27T11:47:21;101182.00;;;7.59;100.00
69058;BME280;56128;37.534;-122.308;2023-04-27T11:49:48;101180.25;;;7.58;100.00
69058;BME280;56128;37.534;-122.308;2023-04-27T11:52:15;101183.03;;;7.56;100.00
69058;BME280;56128;37.534;-122.308;2023-04-27T11:54:52;101183.22;;;7.53;100.00
69058;BME280;56128;37.534;-122.308;2023-04-27T11:57:38;101181.75;;;7.47;100.00
69058;BME280;56128;37.534;-122.308;2023-04-27T12:00:05;101185.44;;;7.45;100.00
69058;BME280;56128;37.534;-122.308;2023-04-27T12:02:36;101188.28;;;7.42;100.00
69058;BME280;56128;37.534;-122.308;2023-04-27T12:05:03;101181.34;;;7.39;100.00
69058;BME280;56128;37.534;-122.308;2023-04-27T12:07:30;101178.06;;;7.34;100.00
69058;BME280;56128;37.534;-122.308;2023-04-27T12:09:57;101179.84;;;7.34;100.00
69058;BME280;56128;37.534;-122.308;2023-04-27T12:12:23;101184.41;;;7.31;100.00
69058;BME280;56128;37.534;-122.308;2023-04-27T12:14:50;101173.94;;;7.28;100.00
69058;BME280;56128;37.534;-122.308;2023-04-27T12:17:17;101170.69;;;7.23;100.00
69058;BME280;56128;37.534;-122.308;2023-04-27T12:19:43;101183.09;;;7.23;100.00
69058;BME280;56128;37.534;-122.308;2023-04-27T12:22:10;101185.09;;;7.19;100.00
69058;BME280;56128;37.534;-122.308;2023-04-27T12:24:36;101188.63;;;7.20;100.00